createdAt,value
2017-05-24T00:00:30.855Z,52.20
2017-05-24T00:02:59.116Z,52.00
2017-05-24T00:05:27.327Z,52.50
2017-05-24T00:07:55.536Z,52.60
2017-05-24T00:10:23.759Z,52.70
2017-05-24T00:12:51.972Z,52.80
2017-05-24T00:15:20.202Z,53.30
2017-05-24T00:17:48.403Z,53.40
2017-05-24T00:20:16.622Z,53.90
2017-05-24T00:22:44.839Z,54.00
2017-05-24T00:25:13.067Z,54.10
2017-05-24T00:27:41.284Z,54.00
2017-05-24T00:30:09.503Z,54.20
2017-05-24T00:32:37.711Z,54.30
2017-05-24T00:35:05.915Z,54.50
2017-05-24T00:37:34.131Z,54.10
2017-05-24T00:40:02.351Z,54.40
2017-05-24T00:42:30.571Z,54.10
2017-05-24T00:44:58.783Z,54.10
2017-05-24T00:47:27.007Z,54.10
2017-05-24T00:49:55.219Z,54.10
2017-05-24T00:52:23.443Z,54.30
2017-05-24T00:54:51.747Z,54.20
2017-05-24T00:57:19.979Z,54.60
2017-05-24T00:59:48.185Z,54.60
2017-05-24T01:02:16.428Z,55.00
2017-05-24T01:04:44.635Z,55.30
2017-05-24T01:07:12.839Z,55.40
2017-05-24T01:09:41.071Z,55.70
2017-05-24T01:12:09.278Z,55.60
2017-05-24T01:14:37.529Z,56.00
2017-05-24T01:17:05.799Z,55.80
2017-05-24T01:19:34.074Z,55.70
2017-05-24T01:22:02.291Z,55.60
2017-05-24T01:24:30.525Z,55.60
2017-05-24T01:26:58.740Z,55.50
2017-05-24T01:29:27.079Z,55.70
2017-05-24T01:31:55.291Z,55.20
2017-05-24T01:34:23.523Z,55.30
2017-05-24T01:36:51.735Z,55.60
2017-05-24T01:39:19.959Z,55.30
2017-05-24T01:41:48.167Z,55.20
2017-05-24T01:44:16.376Z,55.30
2017-05-24T01:46:44.603Z,55.40
2017-05-24T01:49:12.813Z,55.70
2017-05-24T01:51:41.035Z,55.90
2017-05-24T01:54:09.239Z,55.80
2017-05-24T01:56:37.463Z,55.80
2017-05-24T01:59:05.679Z,56.00
2017-05-24T02:01:33.895Z,56.00
2017-05-24T02:04:02.116Z,56.20
2017-05-24T02:06:30.336Z,56.20
2017-05-24T02:08:58.556Z,56.50
2017-05-24T02:11:26.775Z,56.10
2017-05-24T02:13:54.989Z,56.50
2017-05-24T02:16:23.223Z,57.00
2017-05-24T02:18:51.448Z,56.90
2017-05-24T02:21:19.664Z,57.10
2017-05-24T02:23:47.897Z,57.00
2017-05-24T02:26:16.097Z,57.40
2017-05-24T02:28:44.319Z,56.90
2017-05-24T02:31:12.527Z,57.50
2017-05-24T02:33:40.759Z,57.60
2017-05-24T02:36:08.975Z,58.00
2017-05-24T02:38:37.275Z,58.70
2017-05-24T02:41:11.388Z,58.50
2017-05-24T02:43:39.624Z,59.30
2017-05-24T02:46:07.831Z,59.50
2017-05-24T02:48:36.052Z,59.50
2017-05-24T02:51:04.257Z,60.10
2017-05-24T02:53:32.463Z,60.40
2017-05-24T02:56:00.684Z,59.90
2017-05-24T02:58:28.899Z,59.80
2017-05-24T03:00:57.133Z,60.20
2017-05-24T03:03:25.348Z,60.10
2017-05-24T03:05:53.562Z,60.50
2017-05-24T03:08:21.771Z,60.50
2017-05-24T03:10:50.001Z,60.40
2017-05-24T03:13:18.208Z,61.50
2017-05-24T03:15:46.427Z,60.60
2017-05-24T03:18:14.719Z,60.40
2017-05-24T03:20:42.944Z,60.90
2017-05-24T03:23:11.163Z,60.40
2017-05-24T03:25:39.374Z,60.80
2017-05-24T03:28:08.099Z,61.40
2017-05-24T03:30:36.366Z,61.30
2017-05-24T03:33:04.579Z,61.60
2017-05-24T03:35:33.610Z,61.70
2017-05-24T03:38:01.831Z,61.50
2017-05-24T03:40:29.276Z,61.40
2017-05-24T03:42:57.499Z,61.90
2017-05-24T03:45:25.760Z,61.40
2017-05-24T03:47:53.988Z,61.70
2017-05-24T03:50:22.195Z,62.00
2017-05-24T03:52:50.419Z,62.10
2017-05-24T03:55:18.639Z,62.30
2017-05-24T03:57:46.847Z,61.80
2017-05-24T04:00:15.079Z,63.10
2017-05-24T04:02:43.296Z,62.90
2017-05-24T04:05:11.523Z,63.10
2017-05-24T04:07:39.731Z,63.30
2017-05-24T04:10:07.955Z,63.90
2017-05-24T04:12:36.173Z,63.40
2017-05-24T04:15:04.399Z,63.40
2017-05-24T04:17:32.611Z,62.60
2017-05-24T04:20:00.831Z,62.40
2017-05-24T04:22:29.048Z,62.10
2017-05-24T04:24:57.264Z,61.10
2017-05-24T04:27:25.489Z,60.90
2017-05-24T04:29:53.700Z,60.50
2017-05-24T04:32:21.919Z,59.80
2017-05-24T04:34:50.131Z,59.70
2017-05-24T04:37:18.347Z,59.30
2017-05-24T04:39:46.571Z,59.60
2017-05-24T04:42:14.790Z,58.90
2017-05-24T04:44:43.008Z,58.80
2017-05-24T04:47:11.231Z,59.20
2017-05-24T04:49:39.439Z,58.10
2017-05-24T04:52:07.647Z,56.80
2017-05-24T04:54:35.875Z,56.50
2017-05-24T04:57:04.093Z,55.70
2017-05-24T04:59:32.312Z,54.30
2017-05-24T05:02:00.532Z,52.80
2017-05-24T05:04:28.755Z,51.70
2017-05-24T05:06:56.965Z,51.20
2017-05-24T05:09:25.203Z,51.40
2017-05-24T05:11:53.407Z,51.80
2017-05-24T05:14:21.631Z,51.30
2017-05-24T05:16:49.848Z,50.70
2017-05-24T05:19:18.079Z,50.40
2017-05-24T05:21:46.295Z,50.10
2017-05-24T05:24:14.524Z,50.30
2017-05-24T05:26:42.735Z,50.20
2017-05-24T05:29:10.967Z,50.50
2017-05-24T05:31:39.199Z,50.20
2017-05-24T05:34:07.455Z,49.10
2017-05-24T05:36:40.201Z,48.30
2017-05-24T05:39:07.674Z,48.30
2017-05-24T05:41:35.891Z,47.20
2017-05-24T05:44:04.127Z,46.70
2017-05-24T05:46:32.374Z,46.40
2017-05-24T05:49:00.611Z,46.40
2017-05-24T05:51:28.892Z,46.50
2017-05-24T05:53:57.156Z,47.70
2017-05-24T05:56:25.698Z,47.00
2017-05-24T05:58:53.945Z,47.20
2017-05-24T06:01:22.764Z,48.10
2017-05-24T06:03:50.253Z,47.90
2017-05-24T06:06:18.555Z,49.10
2017-05-24T06:08:46.816Z,48.50
2017-05-24T06:11:15.116Z,48.80
2017-05-24T06:13:43.341Z,48.00
2017-05-24T06:16:11.573Z,46.80
2017-05-24T06:18:39.819Z,45.20
2017-05-24T06:21:08.051Z,43.90
2017-05-24T06:23:36.292Z,44.00
2017-05-24T06:26:04.529Z,44.00
2017-05-24T06:28:32.769Z,43.90
2017-05-24T06:31:00.999Z,42.80
2017-05-24T06:33:29.240Z,42.30
2017-05-24T06:35:57.468Z,41.20
2017-05-24T06:38:25.696Z,41.30
2017-05-24T06:40:53.915Z,41.20
2017-05-24T06:43:22.528Z,41.00
2017-05-24T06:45:50.755Z,40.20
2017-05-24T06:48:18.970Z,40.50
2017-05-24T06:50:47.200Z,40.60
2017-05-24T06:53:15.412Z,39.80
2017-05-24T06:55:43.635Z,40.30
2017-05-24T06:58:11.092Z,40.30
2017-05-24T07:00:38.548Z,38.80
2017-05-24T07:03:06.000Z,39.00
2017-05-24T07:05:34.224Z,40.10
2017-05-24T07:08:02.440Z,39.30
2017-05-24T07:10:30.667Z,39.90
2017-05-24T07:12:58.890Z,40.00
2017-05-24T07:15:27.111Z,40.60
2017-05-24T07:17:55.324Z,40.90
2017-05-24T07:20:23.572Z,40.50
2017-05-24T07:22:51.784Z,41.50
2017-05-24T07:25:20.007Z,41.40
2017-05-24T07:27:48.231Z,41.70
2017-05-24T07:30:15.679Z,41.60
2017-05-24T07:32:43.903Z,43.40
2017-05-24T07:35:12.124Z,44.50
2017-05-24T07:37:44.361Z,45.40
2017-05-24T07:40:12.571Z,44.30
2017-05-24T07:42:40.792Z,43.80
2017-05-24T07:45:09.004Z,43.30
2017-05-24T07:47:37.238Z,43.10
2017-05-24T07:50:04.691Z,43.10
2017-05-24T07:52:32.148Z,41.80
2017-05-24T07:55:00.368Z,39.50
2017-05-24T07:57:28.590Z,37.80
2017-05-24T07:59:56.808Z,36.50
2017-05-24T08:02:25.035Z,36.30
2017-05-24T08:04:53.245Z,38.00
2017-05-24T08:07:21.475Z,37.80
2017-05-24T08:09:49.693Z,38.60
2017-05-24T08:12:17.912Z,37.10
2017-05-24T08:14:46.144Z,38.30
2017-05-24T08:17:14.360Z,39.30
2017-05-24T08:19:42.588Z,38.50
2017-05-24T08:22:10.811Z,38.90
2017-05-24T08:24:39.031Z,39.30
2017-05-24T08:27:07.256Z,39.10
2017-05-24T08:29:35.479Z,40.50
2017-05-24T08:32:03.708Z,39.30
2017-05-24T08:34:31.943Z,37.90
2017-05-24T08:37:00.159Z,36.90
2017-05-24T08:39:28.384Z,36.50
2017-05-24T08:41:56.616Z,37.20
2017-05-24T08:44:24.838Z,37.90
2017-05-24T08:46:53.056Z,37.80
2017-05-24T08:49:21.272Z,38.70
2017-05-24T08:51:48.731Z,38.70
2017-05-24T08:54:16.948Z,37.10
2017-05-24T08:56:45.176Z,36.60
2017-05-24T08:59:13.393Z,36.90
2017-05-24T09:01:41.615Z,36.90
2017-05-24T09:04:09.832Z,36.50
2017-05-24T09:06:38.060Z,37.90
2017-05-24T09:09:06.270Z,38.40
2017-05-24T09:11:34.515Z,38.20
2017-05-24T09:14:02.723Z,38.30
2017-05-24T09:16:30.939Z,38.60
2017-05-24T09:18:59.168Z,39.50
2017-05-24T09:21:27.392Z,40.40
2017-05-24T09:23:55.620Z,39.80
2017-05-24T09:26:23.834Z,39.70
2017-05-24T09:28:52.067Z,39.20
2017-05-24T09:31:20.284Z,40.20
2017-05-24T09:33:48.507Z,39.70
2017-05-24T09:36:16.729Z,40.20
2017-05-24T09:38:44.960Z,40.60
2017-05-24T09:41:13.172Z,40.20
2017-05-24T09:43:41.387Z,40.10
2017-05-24T09:46:09.608Z,40.00
2017-05-24T09:48:37.840Z,40.60
2017-05-24T09:51:06.051Z,41.40
2017-05-24T09:53:34.284Z,42.00
2017-05-24T09:56:02.489Z,42.60
2017-05-24T09:58:30.739Z,42.10
2017-05-24T10:00:58.955Z,42.50
2017-05-24T10:03:27.172Z,43.40
2017-05-24T10:05:55.391Z,42.30
2017-05-24T10:08:23.607Z,42.80
2017-05-24T10:10:51.841Z,41.90
2017-05-24T10:13:20.059Z,42.00
2017-05-24T10:15:48.287Z,40.20
2017-05-24T10:18:16.507Z,38.90
2017-05-24T10:20:44.731Z,40.10
2017-05-24T10:23:12.957Z,40.30
2017-05-24T10:25:41.175Z,38.70
2017-05-24T10:28:09.392Z,38.50
2017-05-24T10:30:37.623Z,39.20
2017-05-24T10:33:05.828Z,39.60
2017-05-24T10:35:34.048Z,39.50
2017-05-24T10:38:02.266Z,40.20
2017-05-24T10:40:36.056Z,39.70
2017-05-24T10:43:04.281Z,40.50
2017-05-24T10:45:32.504Z,40.80
2017-05-24T10:48:00.739Z,40.80
2017-05-24T10:50:28.951Z,40.30
2017-05-24T10:52:57.176Z,41.20
2017-05-24T10:55:25.395Z,40.50
2017-05-24T10:57:52.864Z,40.40
2017-05-24T11:00:21.081Z,41.60
2017-05-24T11:02:49.304Z,41.60
2017-05-24T11:05:17.569Z,41.90
2017-05-24T11:07:45.821Z,42.50
2017-05-24T11:10:14.020Z,43.50
2017-05-24T11:12:42.803Z,44.00
2017-05-24T11:15:11.940Z,44.40
2017-05-24T11:17:40.155Z,44.60
2017-05-24T11:20:08.384Z,44.70
2017-05-24T11:22:36.600Z,44.70
2017-05-24T11:25:04.834Z,44.70
2017-05-24T11:27:33.052Z,44.70
2017-05-24T11:30:01.275Z,44.90
2017-05-24T11:32:29.491Z,44.80
2017-05-24T11:34:57.704Z,44.90
2017-05-24T11:37:25.931Z,46.10
2017-05-24T11:39:54.155Z,46.10
2017-05-24T11:42:22.372Z,46.70
2017-05-24T11:44:50.647Z,47.40
2017-05-24T11:47:18.812Z,47.80
2017-05-24T11:49:47.032Z,48.00
2017-05-24T11:52:15.267Z,47.70
2017-05-24T11:54:43.491Z,47.20
2017-05-24T11:57:11.719Z,46.60
2017-05-24T11:59:39.940Z,46.30
2017-05-24T12:02:08.173Z,46.60
2017-05-24T12:04:36.386Z,46.60
2017-05-24T12:07:04.619Z,47.50
2017-05-24T12:09:32.833Z,47.60
2017-05-24T12:12:01.056Z,48.30
2017-05-24T12:14:29.274Z,47.90
2017-05-24T12:16:57.513Z,49.10
2017-05-24T12:19:25.724Z,50.00
2017-05-24T12:21:53.944Z,50.60
2017-05-24T12:24:22.181Z,51.20
2017-05-24T12:26:50.815Z,51.10
2017-05-24T12:29:19.040Z,51.70
2017-05-24T12:31:47.252Z,52.00
2017-05-24T12:34:15.483Z,52.40
2017-05-24T12:36:43.703Z,52.00
2017-05-24T12:39:11.936Z,52.00
2017-05-24T12:41:40.148Z,51.50
2017-05-24T12:44:08.388Z,51.00
2017-05-24T12:46:36.606Z,50.50
2017-05-24T12:49:04.844Z,50.10
2017-05-24T12:51:33.764Z,50.10
2017-05-24T12:54:01.983Z,50.60
2017-05-24T12:56:30.205Z,51.20
2017-05-24T12:58:58.416Z,51.40
2017-05-24T13:01:26.649Z,52.30
2017-05-24T13:03:54.869Z,51.80
2017-05-24T13:06:23.099Z,51.80
2017-05-24T13:08:51.311Z,52.10
2017-05-24T13:11:19.555Z,52.00
2017-05-24T13:13:47.775Z,51.50
2017-05-24T13:16:15.990Z,50.70
2017-05-24T13:18:44.216Z,50.40
2017-05-24T13:21:12.423Z,50.60
2017-05-24T13:23:40.651Z,49.30
2017-05-24T13:26:08.875Z,47.90
2017-05-24T13:28:37.116Z,48.30
2017-05-24T13:31:05.327Z,47.70
2017-05-24T13:33:33.551Z,48.30
2017-05-24T13:36:01.772Z,48.10
2017-05-24T13:38:30.012Z,47.50
2017-05-24T13:40:58.228Z,47.50
2017-05-24T13:43:26.439Z,47.80
2017-05-24T13:45:54.680Z,47.50
2017-05-24T13:48:22.900Z,46.70
2017-05-24T13:50:51.134Z,46.60
2017-05-24T13:53:19.348Z,47.10
2017-05-24T13:55:47.588Z,47.00
2017-05-24T13:58:15.032Z,47.20
2017-05-24T14:00:43.260Z,46.60
2017-05-24T14:03:11.484Z,45.60
2017-05-24T14:05:39.703Z,45.00
2017-05-24T14:08:07.915Z,44.50
2017-05-24T14:10:36.148Z,44.80
2017-05-24T14:13:04.369Z,44.40
2017-05-24T14:15:32.592Z,43.30
2017-05-24T14:18:00.819Z,43.50
2017-05-24T14:20:29.028Z,42.80
2017-05-24T14:22:57.259Z,42.40
2017-05-24T14:25:25.486Z,42.50
2017-05-24T14:27:52.953Z,42.50
2017-05-24T14:30:21.171Z,42.30
2017-05-24T14:32:49.391Z,41.60
2017-05-24T14:35:18.428Z,42.30
2017-05-24T14:37:46.651Z,43.10
2017-05-24T14:40:14.871Z,42.90
2017-05-24T14:42:43.101Z,43.50
2017-05-24T14:45:11.312Z,43.60
2017-05-24T14:47:39.543Z,44.20
2017-05-24T14:50:07.750Z,44.20
2017-05-24T14:52:35.964Z,45.30
2017-05-24T14:55:04.200Z,45.50
2017-05-24T14:57:32.423Z,45.20
2017-05-24T15:00:00.651Z,45.70
2017-05-24T15:02:28.331Z,45.70
2017-05-24T15:04:56.551Z,46.90
2017-05-24T15:07:24.768Z,47.50
2017-05-24T15:09:53.056Z,48.30
2017-05-24T15:12:21.271Z,50.40
2017-05-24T15:14:49.494Z,51.50
2017-05-24T15:17:17.725Z,52.80
2017-05-24T15:19:45.948Z,52.60
2017-05-24T15:22:14.160Z,53.10
2017-05-24T15:24:42.419Z,52.70
2017-05-24T15:27:10.636Z,52.20
2017-05-24T15:29:38.860Z,52.80
2017-05-24T15:32:07.069Z,53.10
2017-05-24T15:34:35.292Z,53.00
2017-05-24T15:37:03.516Z,53.40
2017-05-24T15:39:31.732Z,53.40
2017-05-24T15:41:59.960Z,53.20
2017-05-24T15:44:28.171Z,53.70
2017-05-24T15:46:56.419Z,53.70
2017-05-24T15:49:24.633Z,53.70
2017-05-24T15:51:52.868Z,53.10
2017-05-24T15:54:21.092Z,53.00
2017-05-24T15:56:49.319Z,53.30
2017-05-24T15:59:17.544Z,53.40
2017-05-24T16:01:46.181Z,53.20
2017-05-24T16:04:14.396Z,54.50
2017-05-24T16:06:42.603Z,57.30
2017-05-24T16:09:10.835Z,64.50
2017-05-24T16:11:39.059Z,65.60
2017-05-24T16:14:07.283Z,65.70
2017-05-24T16:16:35.499Z,63.60
2017-05-24T16:19:03.736Z,63.70
2017-05-24T16:21:31.957Z,61.30
2017-05-24T16:24:00.179Z,60.70
2017-05-24T16:26:28.392Z,59.00
2017-05-24T16:28:56.611Z,58.40
2017-05-24T16:31:24.058Z,58.30
2017-05-24T16:33:52.289Z,56.20
2017-05-24T16:36:20.509Z,55.40
2017-05-24T16:38:48.739Z,54.10
2017-05-24T16:41:16.975Z,52.30
2017-05-24T16:43:45.200Z,51.00
2017-05-24T16:46:13.423Z,51.20
2017-05-24T16:48:41.641Z,53.60
2017-05-24T16:51:09.867Z,53.40
2017-05-24T16:53:38.097Z,53.60
2017-05-24T16:56:06.319Z,52.90
2017-05-24T16:58:34.535Z,54.30
2017-05-24T17:01:02.763Z,55.80
2017-05-24T17:03:30.975Z,56.60
2017-05-24T17:05:59.204Z,56.50
2017-05-24T17:08:27.420Z,55.90
2017-05-24T17:10:55.648Z,56.30
2017-05-24T17:13:23.872Z,57.50
2017-05-24T17:15:52.307Z,57.70
2017-05-24T17:18:20.519Z,58.30
2017-05-24T17:20:47.995Z,58.30
2017-05-24T17:23:16.736Z,59.40
2017-05-24T17:25:45.741Z,61.60
2017-05-24T17:28:13.967Z,63.00
2017-05-24T17:30:42.204Z,62.50
2017-05-24T17:33:10.440Z,62.40
2017-05-24T17:35:38.654Z,64.40
2017-05-24T17:38:06.875Z,63.80
2017-05-24T17:40:35.087Z,63.60
2017-05-24T17:43:03.312Z,62.20
2017-05-24T17:45:31.535Z,63.70
2017-05-24T17:47:59.764Z,62.30
2017-05-24T17:50:27.972Z,61.30
2017-05-24T17:52:56.221Z,61.00
2017-05-24T17:55:24.431Z,60.00
2017-05-24T17:57:52.655Z,60.10
2017-05-24T18:00:20.859Z,59.80
2017-05-24T18:02:49.082Z,60.20
2017-05-24T18:05:17.295Z,59.40
2017-05-24T18:07:45.539Z,63.20
2017-05-24T18:10:13.747Z,65.20
2017-05-24T18:12:41.980Z,65.10
2017-05-24T18:15:10.188Z,65.90
2017-05-24T18:17:38.404Z,66.30
2017-05-24T18:20:06.637Z,67.40
2017-05-24T18:22:34.859Z,69.50
2017-05-24T18:25:03.088Z,71.40
2017-05-24T18:27:31.307Z,71.80
2017-05-24T18:29:59.532Z,72.70
2017-05-24T18:32:27.755Z,73.40
2017-05-24T18:34:55.980Z,73.30
2017-05-24T18:37:24.196Z,73.70
2017-05-24T18:39:52.421Z,72.90
2017-05-24T18:42:21.055Z,72.30
2017-05-24T18:44:49.291Z,71.30
2017-05-24T18:47:17.504Z,70.60
2017-05-24T18:49:45.725Z,70.90
2017-05-24T18:52:13.955Z,70.50
2017-05-24T18:54:42.178Z,70.00
2017-05-24T18:57:10.412Z,70.10
2017-05-24T18:59:38.627Z,70.90
2017-05-24T19:02:06.855Z,72.00
2017-05-24T19:04:35.079Z,71.00
2017-05-24T19:07:03.307Z,72.00
2017-05-24T19:09:31.527Z,72.80
2017-05-24T19:11:59.755Z,73.20
2017-05-24T19:14:27.976Z,71.70
2017-05-24T19:16:56.228Z,72.70
2017-05-24T19:19:24.444Z,73.60
2017-05-24T19:21:52.656Z,74.60
2017-05-24T19:24:20.884Z,74.10
2017-05-24T19:26:49.107Z,75.10
2017-05-24T19:29:17.336Z,75.70
2017-05-24T19:31:45.553Z,75.80
2017-05-24T19:34:13.775Z,75.70
2017-05-24T19:36:42.004Z,76.20
2017-05-24T19:39:10.231Z,77.40
2017-05-24T19:41:38.459Z,77.90
2017-05-24T19:44:06.680Z,77.90
2017-05-24T19:46:34.910Z,77.20
2017-05-24T19:49:03.134Z,77.90
2017-05-24T19:51:31.352Z,77.80
2017-05-24T19:53:59.575Z,77.90
2017-05-24T19:56:27.806Z,77.90
2017-05-24T19:58:56.031Z,78.20
2017-05-24T20:01:24.278Z,78.90
2017-05-24T20:03:52.491Z,79.20
2017-05-24T20:06:20.729Z,78.90
2017-05-24T20:08:48.953Z,78.30
2017-05-24T20:11:17.183Z,78.60
2017-05-24T20:13:45.395Z,78.80
2017-05-24T20:16:13.625Z,79.00
2017-05-24T20:18:41.844Z,78.70
2017-05-24T20:21:10.078Z,78.40
2017-05-24T20:23:38.296Z,78.80
2017-05-24T20:26:06.551Z,79.30
2017-05-24T20:28:34.781Z,79.50
2017-05-24T20:31:03.000Z,80.10
2017-05-24T20:33:31.231Z,80.40
2017-05-24T20:35:59.452Z,79.80
2017-05-24T20:38:27.687Z,79.90
2017-05-24T20:40:55.908Z,78.40
2017-05-24T20:43:24.143Z,78.20
2017-05-24T20:45:52.371Z,80.50
2017-05-24T20:48:20.599Z,81.70
2017-05-24T20:50:48.819Z,82.50
2017-05-24T20:53:17.068Z,82.00
2017-05-24T20:55:45.300Z,81.70
2017-05-24T20:58:13.516Z,81.20
2017-05-24T21:00:41.755Z,80.40
2017-05-24T21:03:09.986Z,80.40
2017-05-24T21:05:38.223Z,80.50
2017-05-24T21:08:06.435Z,80.70
2017-05-24T21:10:34.675Z,80.00
2017-05-24T21:13:02.891Z,80.00
2017-05-24T21:15:31.118Z,79.90
2017-05-24T21:17:59.336Z,80.20
2017-05-24T21:20:27.566Z,81.30
2017-05-24T21:22:55.790Z,81.60
2017-05-24T21:25:24.027Z,82.30
2017-05-24T21:27:52.244Z,82.60
2017-05-24T21:30:20.490Z,82.60
2017-05-24T21:32:48.696Z,82.90
2017-05-24T21:35:16.952Z,82.60
2017-05-24T21:37:45.174Z,83.00
2017-05-24T21:40:13.388Z,82.80
2017-05-24T21:42:41.625Z,83.40
2017-05-24T21:45:09.835Z,84.00
2017-05-24T21:47:38.070Z,84.40
2017-05-24T21:50:06.288Z,84.20
2017-05-24T21:52:35.051Z,84.60
2017-05-24T21:55:03.272Z,84.80
2017-05-24T21:57:31.503Z,84.40
2017-05-24T21:59:59.737Z,83.70
2017-05-24T22:02:27.975Z,83.70
2017-05-24T22:04:56.193Z,83.30
2017-05-24T22:07:24.423Z,83.40
2017-05-24T22:09:52.658Z,84.20
2017-05-24T22:12:20.876Z,84.00
2017-05-24T22:14:49.107Z,84.00
2017-05-24T22:17:17.332Z,83.90
2017-05-24T22:19:45.562Z,84.00
2017-05-24T22:22:13.787Z,84.10
2017-05-24T22:24:42.015Z,83.50
2017-05-24T22:27:10.244Z,82.80
2017-05-24T22:29:38.478Z,83.20
2017-05-24T22:32:06.691Z,82.60
2017-05-24T22:34:34.931Z,82.30
2017-05-24T22:37:03.149Z,82.50
2017-05-24T22:39:31.388Z,83.00
2017-05-24T22:41:59.600Z,83.10
2017-05-24T22:44:27.821Z,83.20
2017-05-24T22:46:56.051Z,83.30
2017-05-24T22:49:24.274Z,83.40
2017-05-24T22:51:52.502Z,83.50
2017-05-24T22:54:20.728Z,84.50
2017-05-24T22:56:48.953Z,85.10
2017-05-24T22:59:17.167Z,85.30
2017-05-24T23:01:45.399Z,85.00
2017-05-24T23:04:13.619Z,84.80
2017-05-24T23:06:41.844Z,84.00
2017-05-24T23:09:10.069Z,83.30
2017-05-24T23:11:38.299Z,83.30
2017-05-24T23:14:06.517Z,83.00
2017-05-24T23:16:34.744Z,82.90
2017-05-24T23:19:02.961Z,82.70
2017-05-24T23:21:31.185Z,82.40
2017-05-24T23:23:59.410Z,82.70
2017-05-24T23:26:27.636Z,83.20
2017-05-24T23:28:55.868Z,83.00
2017-05-24T23:31:24.080Z,83.40
2017-05-24T23:33:52.317Z,84.00
2017-05-24T23:36:25.403Z,83.80
2017-05-24T23:38:53.631Z,83.60
2017-05-24T23:41:21.851Z,83.80
2017-05-24T23:43:50.096Z,83.70
2017-05-24T23:46:18.303Z,84.30
2017-05-24T23:48:46.535Z,85.50
2017-05-24T23:51:14.756Z,85.40
2017-05-24T23:53:46.336Z,85.90
2017-05-24T23:56:14.556Z,85.40
2017-05-24T23:58:42.788Z,85.20
